createdAt,value
2022-11-28T00:02:34.340Z,7.07
2022-11-28T00:05:10.519Z,7.08
2022-11-28T00:07:45.270Z,7.09
2022-11-28T00:10:24.564Z,7.08
2022-11-28T00:12:57.937Z,7.08
2022-11-28T00:15:36.238Z,7.08
2022-11-28T00:18:12.298Z,7.09
2022-11-28T00:20:45.917Z,7.10
2022-11-28T00:23:16.371Z,7.09
2022-11-28T00:25:47.066Z,7.10
2022-11-28T00:28:20.431Z,7.10
2022-11-28T00:30:58.554Z,7.10
2022-11-28T00:33:30.826Z,7.10
2022-11-28T00:36:00.785Z,7.10
2022-11-28T00:38:32.981Z,7.11
2022-11-28T00:41:07.530Z,7.12
2022-11-28T00:43:40.709Z,7.10
2022-11-28T00:46:12.852Z,7.13
2022-11-28T00:48:47.407Z,7.12
2022-11-28T00:51:27.945Z,7.13
2022-11-28T00:54:03.094Z,7.12
2022-11-28T00:56:45.549Z,7.12
2022-11-28T00:59:19.710Z,7.11
2022-11-28T01:01:55.412Z,7.11
2022-11-28T01:04:35.843Z,7.11
2022-11-28T01:07:14.558Z,7.12
2022-11-28T01:09:45.770Z,7.11
2022-11-28T01:12:33.606Z,7.10
2022-11-28T01:15:11.081Z,7.11
2022-11-28T01:17:45.076Z,7.11
2022-11-28T01:20:18.096Z,7.11
2022-11-28T01:22:47.154Z,7.11
2022-11-28T01:25:17.352Z,7.13
2022-11-28T01:27:53.628Z,7.12
2022-11-28T01:30:24.639Z,7.13
2022-11-28T01:32:59.060Z,7.15
2022-11-28T01:35:35.257Z,7.15
2022-11-28T01:38:05.599Z,7.15
2022-11-28T01:40:45.287Z,7.15
2022-11-28T01:43:16.181Z,7.15
2022-11-28T01:45:49.120Z,7.17
2022-11-28T01:48:25.211Z,7.16
2022-11-28T01:51:03.468Z,7.16
2022-11-28T01:53:40.462Z,7.16
2022-11-28T01:56:17.428Z,7.16
2022-11-28T01:58:55.083Z,7.15
2022-11-28T02:01:28.140Z,7.16
2022-11-28T02:04:03.167Z,7.16
2022-11-28T02:06:40.732Z,7.17
2022-11-28T02:09:12.972Z,7.16
2022-11-28T02:12:13.647Z,7.16
2022-11-28T02:15:05.235Z,7.17
2022-11-28T02:17:54.063Z,7.16
2022-11-28T02:21:05.622Z,7.17
2022-11-28T02:24:21.516Z,7.16
2022-11-28T02:27:10.549Z,7.16
2022-11-28T02:30:03.871Z,7.17
2022-11-28T02:32:44.542Z,7.18
2022-11-28T02:35:21.216Z,7.19
2022-11-28T02:38:06.236Z,7.19
2022-11-28T02:40:41.615Z,7.20
2022-11-28T02:43:32.285Z,7.19
2022-11-28T02:46:16.974Z,7.20
2022-11-28T02:48:53.386Z,7.20
2022-11-28T02:51:35.788Z,7.19
2022-11-28T02:54:13.034Z,7.19
2022-11-28T02:56:48.389Z,7.21
2022-11-28T02:59:49.122Z,7.21
2022-11-28T03:02:29.369Z,7.20
2022-11-28T03:05:23.559Z,7.21
2022-11-28T03:08:03.013Z,7.20
2022-11-28T03:10:47.193Z,7.19
2022-11-28T03:13:30.734Z,7.17
2022-11-28T03:16:20.539Z,7.16
2022-11-28T03:19:01.753Z,7.16
2022-11-28T03:21:50.895Z,7.15
2022-11-28T03:24:31.867Z,7.13
2022-11-28T03:27:15.935Z,7.11
2022-11-28T03:29:51.077Z,7.11
2022-11-28T03:32:36.144Z,7.11
2022-11-28T03:35:22.661Z,7.09
2022-11-28T03:38:04.608Z,7.08
2022-11-28T03:40:44.456Z,7.07
2022-11-28T03:43:22.580Z,7.06
2022-11-28T03:45:55.650Z,7.06
2022-11-28T03:48:31.100Z,7.04
2022-11-28T03:51:05.346Z,7.04
2022-11-28T03:53:51.188Z,7.02
2022-11-28T03:56:30.164Z,7.01
2022-11-28T03:59:11.956Z,7.00
2022-11-28T04:01:54.511Z,7.00
2022-11-28T04:04:39.576Z,6.98
2022-11-28T04:07:26.149Z,6.98
2022-11-28T04:10:16.496Z,6.97
2022-11-28T04:12:59.262Z,6.97
2022-11-28T04:15:39.112Z,6.95
2022-11-28T04:18:17.918Z,6.96
2022-11-28T04:21:00.765Z,6.94
2022-11-28T04:23:36.212Z,6.94
2022-11-28T04:26:13.891Z,6.92
2022-11-28T04:28:46.741Z,6.95
2022-11-28T04:31:22.868Z,6.92
2022-11-28T04:33:59.249Z,6.94
2022-11-28T04:36:32.994Z,6.95
2022-11-28T04:39:04.318Z,6.94
2022-11-28T04:41:40.089Z,6.94
2022-11-28T04:44:18.417Z,6.94
2022-11-28T04:46:57.795Z,6.94
2022-11-28T04:49:32.404Z,6.93
2022-11-28T04:52:10.256Z,6.91
2022-11-28T04:54:59.206Z,6.93
2022-11-28T04:57:34.085Z,6.93
2022-11-28T05:00:22.901Z,6.93
2022-11-28T05:02:56.838Z,6.93
2022-11-28T05:05:40.415Z,6.92
2022-11-28T05:08:09.714Z,6.90
2022-11-28T05:10:44.776Z,6.91
2022-11-28T05:13:27.662Z,6.89
2022-11-28T05:16:08.951Z,6.89
2022-11-28T05:18:59.072Z,6.90
2022-11-28T05:21:34.312Z,6.89
2022-11-28T05:24:04.643Z,6.89
2022-11-28T05:26:45.359Z,6.88
2022-11-28T05:29:20.758Z,6.87
2022-11-28T05:31:55.286Z,6.87
2022-11-28T05:34:29.620Z,6.87
2022-11-28T05:37:01.234Z,6.86
2022-11-28T05:39:31.539Z,6.83
2022-11-28T05:42:17.076Z,6.85
2022-11-28T05:44:57.397Z,6.84
2022-11-28T05:47:30.036Z,6.83
2022-11-28T05:50:06.473Z,6.83
2022-11-28T05:52:40.538Z,6.82
2022-11-28T05:55:12.176Z,6.82
2022-11-28T05:57:42.294Z,6.82
2022-11-28T06:00:17.976Z,6.81
2022-11-28T06:03:01.289Z,6.81
2022-11-28T06:05:46.232Z,6.80
2022-11-28T06:08:17.876Z,6.80
2022-11-28T06:11:04.797Z,6.80
2022-11-28T06:13:38.404Z,6.80
2022-11-28T06:16:11.369Z,6.78
2022-11-28T06:18:41.687Z,6.78
2022-11-28T06:21:23.777Z,6.78
2022-11-28T06:24:01.950Z,6.78
2022-11-28T06:26:33.799Z,6.76
2022-11-28T06:29:07.073Z,6.76
2022-11-28T06:31:45.898Z,6.76
2022-11-28T06:34:25.599Z,6.76
2022-11-28T06:37:05.076Z,6.76
2022-11-28T06:39:36.085Z,6.75
2022-11-28T06:42:11.050Z,6.76
2022-11-28T06:44:41.193Z,6.76
2022-11-28T06:47:15.586Z,6.75
2022-11-28T06:49:44.548Z,6.75
2022-11-28T06:52:13.630Z,6.75
2022-11-28T06:54:43.948Z,6.76
2022-11-28T06:57:13.835Z,6.76
2022-11-28T06:59:43.533Z,6.76
2022-11-28T07:02:19.893Z,6.77
2022-11-28T07:04:54.473Z,6.77
2022-11-28T07:07:23.957Z,6.77
2022-11-28T07:10:05.799Z,6.78
2022-11-28T07:12:41.526Z,6.79
2022-11-28T07:15:14.939Z,6.81
2022-11-28T07:17:47.079Z,6.83
2022-11-28T07:20:19.085Z,6.84
2022-11-28T07:22:52.795Z,6.85
2022-11-28T07:25:21.861Z,6.88
2022-11-28T07:27:53.980Z,6.89
2022-11-28T07:30:23.649Z,6.90
2022-11-28T07:32:56.764Z,6.91
2022-11-28T07:35:26.392Z,6.94
2022-11-28T07:37:55.043Z,6.95
2022-11-28T07:40:24.446Z,6.97
2022-11-28T07:42:53.161Z,6.96
2022-11-28T07:45:22.884Z,6.98
2022-11-28T07:47:58.254Z,6.98
2022-11-28T07:50:26.957Z,6.99
2022-11-28T07:53:04.151Z,7.00
2022-11-28T07:55:39.757Z,6.99
2022-11-28T07:58:09.117Z,7.01
2022-11-28T08:00:38.896Z,7.02
2022-11-28T08:03:10.174Z,7.02
2022-11-28T08:05:39.181Z,7.03
2022-11-28T08:08:08.884Z,7.04
2022-11-28T08:10:44.365Z,7.05
2022-11-28T08:13:16.270Z,7.05
2022-11-28T08:15:46.135Z,7.06
2022-11-28T08:18:16.714Z,7.07
2022-11-28T08:20:45.572Z,7.08
2022-11-28T08:23:14.862Z,7.08
2022-11-28T08:25:43.929Z,7.10
2022-11-28T08:28:16.471Z,7.11
2022-11-28T08:30:47.075Z,7.11
2022-11-28T08:33:19.013Z,7.13
2022-11-28T08:35:49.023Z,7.14
2022-11-28T08:38:23.777Z,7.15
2022-11-28T08:41:02.610Z,7.16
2022-11-28T08:43:35.242Z,7.18
2022-11-28T08:46:05.032Z,7.18
2022-11-28T08:48:38.017Z,7.21
2022-11-28T08:51:11.893Z,7.22
2022-11-28T08:53:43.989Z,7.24
2022-11-28T08:56:15.910Z,7.25
2022-11-28T08:58:49.063Z,7.25
2022-11-28T09:01:21.369Z,7.26
2022-11-28T09:03:56.330Z,7.27
2022-11-28T09:06:28.949Z,7.28
2022-11-28T09:09:01.973Z,7.28
2022-11-28T09:11:31.439Z,7.31
2022-11-28T09:14:01.195Z,7.33
2022-11-28T09:16:29.707Z,7.34
2022-11-28T09:19:01.877Z,7.34
2022-11-28T09:21:36.129Z,7.35
2022-11-28T09:24:07.122Z,7.36
2022-11-28T09:26:36.868Z,7.37
2022-11-28T09:29:11.869Z,7.39
2022-11-28T09:31:52.430Z,7.40
2022-11-28T09:34:31.328Z,7.40
2022-11-28T09:37:05.148Z,7.41
2022-11-28T09:40:04.814Z,7.41
2022-11-28T09:42:42.083Z,7.43
2022-11-28T09:45:29.989Z,7.44
2022-11-28T09:48:22.668Z,7.45
2022-11-28T09:51:11.543Z,7.47
2022-11-28T09:53:47.430Z,7.47
2022-11-28T09:56:23.121Z,7.48
2022-11-28T09:59:05.382Z,7.48
2022-11-28T10:01:58.685Z,7.49
2022-11-28T10:04:48.007Z,7.51
2022-11-28T10:07:33.595Z,7.52
2022-11-28T10:10:29.107Z,7.53
2022-11-28T10:13:17.260Z,7.54
2022-11-28T10:16:02.653Z,7.55
2022-11-28T10:18:45.260Z,7.57
2022-11-28T10:21:34.876Z,7.61
2022-11-28T10:24:15.406Z,7.62
2022-11-28T10:26:52.341Z,7.62
2022-11-28T10:29:30.300Z,7.64
2022-11-28T10:32:07.411Z,7.66
2022-11-28T10:34:48.643Z,7.68
2022-11-28T10:37:27.437Z,7.69
2022-11-28T10:40:14.471Z,7.71
2022-11-28T10:42:55.930Z,7.72
2022-11-28T10:45:38.962Z,7.73
2022-11-28T10:48:38.952Z,7.75
2022-11-28T10:51:21.585Z,7.76
2022-11-28T10:54:04.954Z,7.78
2022-11-28T10:56:44.279Z,7.80
2022-11-28T10:59:26.932Z,7.81
2022-11-28T11:02:03.813Z,7.84
2022-11-28T11:04:43.333Z,7.85
2022-11-28T11:07:21.794Z,7.86
2022-11-28T11:09:54.577Z,7.89
2022-11-28T11:12:33.772Z,7.89
2022-11-28T11:15:19.264Z,7.89
2022-11-28T11:17:52.652Z,7.92
2022-11-28T11:20:35.011Z,7.92
2022-11-28T11:23:19.256Z,7.93
2022-11-28T11:26:02.969Z,7.92
2022-11-28T11:28:52.703Z,7.93
2022-11-28T11:31:33.531Z,7.95
2022-11-28T11:34:06.985Z,7.96
2022-11-28T11:36:43.361Z,7.97
2022-11-28T11:39:25.658Z,7.98
2022-11-28T11:42:12.784Z,7.98
2022-11-28T11:44:48.137Z,7.99
2022-11-28T11:47:45.615Z,8.00
2022-11-28T11:50:23.205Z,8.00
2022-11-28T11:53:08.159Z,7.98
2022-11-28T11:55:49.833Z,7.98
2022-11-28T11:58:26.282Z,7.98
2022-11-28T12:01:06.033Z,7.98
2022-11-28T12:03:50.597Z,7.99
2022-11-28T12:06:34.452Z,7.98
2022-11-28T12:09:17.395Z,7.98
2022-11-28T12:11:53.597Z,7.96
2022-11-28T12:14:35.403Z,7.97
2022-11-28T12:20:52.332Z,7.96
2022-11-28T12:23:54.523Z,7.97
2022-11-28T12:26:52.379Z,7.97
2022-11-28T12:29:45.283Z,7.97
2022-11-28T12:32:44.056Z,7.97
2022-11-28T12:35:33.404Z,7.96
2022-11-28T12:38:15.808Z,7.96
2022-11-28T12:41:03.663Z,7.95
2022-11-28T12:43:44.116Z,7.94
2022-11-28T12:46:28.987Z,7.92
2022-11-28T12:49:18.040Z,7.91
2022-11-28T12:52:05.754Z,7.91
2022-11-28T12:54:57.860Z,7.92
2022-11-28T12:57:35.186Z,7.93
2022-11-28T13:00:24.148Z,7.94
2022-11-28T13:03:15.275Z,7.95
2022-11-28T13:06:00.288Z,7.96
2022-11-28T13:08:59.915Z,7.96
2022-11-28T13:11:49.899Z,7.97
2022-11-28T13:14:36.390Z,7.97
2022-11-28T13:17:21.777Z,7.98
2022-11-28T13:20:03.762Z,7.98
2022-11-28T13:22:50.273Z,7.98
2022-11-28T13:25:33.476Z,7.96
2022-11-28T13:28:26.453Z,7.97
2022-11-28T13:31:07.454Z,7.96
2022-11-28T13:33:54.475Z,7.96
2022-11-28T13:39:38.725Z,7.97
2022-11-28T13:42:59.521Z,7.99
2022-11-28T13:45:32.254Z,7.99
2022-11-28T13:51:34.100Z,8.00
2022-11-28T13:54:42.522Z,8.02
2022-11-28T13:57:34.530Z,8.03
2022-11-28T14:00:27.749Z,8.04
2022-11-28T14:03:02.398Z,8.05
2022-11-28T14:05:39.157Z,8.06
2022-11-28T14:08:31.539Z,8.06
2022-11-28T14:11:32.644Z,8.06
2022-11-28T14:14:32.035Z,8.07
2022-11-28T14:17:37.231Z,8.09
2022-11-28T14:20:22.534Z,8.11
2022-11-28T14:23:10.257Z,8.11
2022-11-28T14:25:54.097Z,8.12
2022-11-28T14:28:40.814Z,8.13
2022-11-28T14:31:33.735Z,8.13
2022-11-28T14:34:46.240Z,8.15
2022-11-28T14:37:57.772Z,8.14
2022-11-28T14:41:06.831Z,8.16
2022-11-28T14:43:40.521Z,8.14
2022-11-28T14:46:40.832Z,8.15
2022-11-28T14:49:29.574Z,8.15
2022-11-28T14:52:38.990Z,8.15
2022-11-28T14:55:33.357Z,8.16
2022-11-28T14:58:18.012Z,8.15
2022-11-28T15:00:56.420Z,8.16
2022-11-28T15:03:43.787Z,8.16
2022-11-28T15:06:31.968Z,8.15
2022-11-28T15:09:23.835Z,8.16
2022-11-28T15:12:11.968Z,8.18
2022-11-28T15:15:03.307Z,8.18
2022-11-28T15:17:39.064Z,8.18
2022-11-28T15:20:22.047Z,8.17
2022-11-28T15:22:59.437Z,8.19
2022-11-28T15:25:42.768Z,8.20
2022-11-28T15:28:28.836Z,8.20
2022-11-28T15:31:05.515Z,8.21
2022-11-28T15:33:49.407Z,8.20
2022-11-28T15:36:38.075Z,8.20
2022-11-28T15:39:30.874Z,8.21
2022-11-28T15:42:26.453Z,8.22
2022-11-28T15:45:06.398Z,8.22
2022-11-28T15:47:35.816Z,8.23
2022-11-28T15:50:16.023Z,8.23
2022-11-28T15:52:54.555Z,8.25
2022-11-28T15:55:24.569Z,8.25
2022-11-28T15:57:53.787Z,8.26
2022-11-28T16:00:35.049Z,8.26
2022-11-28T16:03:10.202Z,8.27
2022-11-28T16:05:40.512Z,8.26
2022-11-28T16:08:32.851Z,8.27
2022-11-28T16:11:17.460Z,8.27
2022-11-28T16:14:04.416Z,8.27
2022-11-28T16:16:59.662Z,8.26
2022-11-28T16:19:39.724Z,8.27
2022-11-28T16:22:24.014Z,8.28
2022-11-28T16:25:13.843Z,8.28
2022-11-28T16:27:57.421Z,8.28
2022-11-28T16:31:00.469Z,8.27
2022-11-28T16:33:44.363Z,8.28
2022-11-28T16:36:24.330Z,8.29
2022-11-28T16:39:09.351Z,8.29
2022-11-28T16:41:40.718Z,8.29
2022-11-28T16:44:22.979Z,8.28
2022-11-28T16:46:58.696Z,8.30
2022-11-28T16:50:01.625Z,8.30
2022-11-28T16:52:50.590Z,8.31
2022-11-28T16:55:59.521Z,8.30
2022-11-28T16:58:32.271Z,8.32
2022-11-28T17:01:14.543Z,8.33
2022-11-28T17:03:58.075Z,8.34
2022-11-28T17:06:41.557Z,8.34
2022-11-28T17:09:34.355Z,8.34
2022-11-28T17:12:24.204Z,8.35
2022-11-28T17:15:04.340Z,8.37
2022-11-28T17:17:41.917Z,8.37
2022-11-28T17:20:18.077Z,8.39
2022-11-28T17:22:57.090Z,8.40
2022-11-28T17:25:30.908Z,8.41
2022-11-28T17:28:06.743Z,8.40
2022-11-28T17:30:56.359Z,8.41
2022-11-28T17:33:43.234Z,8.41
2022-11-28T17:36:25.278Z,8.42
2022-11-28T17:39:08.865Z,8.42
2022-11-28T17:41:57.213Z,8.42
2022-11-28T17:44:50.019Z,8.43
2022-11-28T17:47:29.358Z,8.44
2022-11-28T17:50:10.265Z,8.43
2022-11-28T17:52:48.681Z,8.45
2022-11-28T17:55:27.757Z,8.45
2022-11-28T17:58:04.245Z,8.43
2022-11-28T18:00:34.807Z,8.46
2022-11-28T18:03:06.673Z,8.45
2022-11-28T18:05:42.579Z,8.47
2022-11-28T18:08:27.376Z,8.47
2022-11-28T18:11:13.034Z,8.49
2022-11-28T18:13:52.658Z,8.49
2022-11-28T18:16:29.877Z,8.49
2022-11-28T18:19:08.282Z,8.49
2022-11-28T18:21:39.986Z,8.50
2022-11-28T18:24:13.705Z,8.51
2022-11-28T18:26:54.093Z,8.49
2022-11-28T18:29:28.513Z,8.49
2022-11-28T18:32:04.561Z,8.51
2022-11-28T18:34:40.470Z,8.52
2022-11-28T18:37:20.288Z,8.52
2022-11-28T18:39:58.072Z,8.52
2022-11-28T18:42:35.575Z,8.52
2022-11-28T18:45:12.196Z,8.54
2022-11-28T18:47:46.041Z,8.54
2022-11-28T18:50:26.200Z,8.53
2022-11-28T18:53:00.085Z,8.54
2022-11-28T18:55:35.473Z,8.54
2022-11-28T18:58:11.187Z,8.55
2022-11-28T19:00:48.254Z,8.55
2022-11-28T19:03:22.692Z,8.56
2022-11-28T19:05:56.479Z,8.57
2022-11-28T19:08:28.922Z,8.59
2022-11-28T19:11:09.228Z,8.60
2022-11-28T19:13:47.955Z,8.59
2022-11-28T19:16:28.822Z,8.60
2022-11-28T19:19:07.081Z,8.62
2022-11-28T19:21:51.993Z,8.60
2022-11-28T19:24:24.802Z,8.62
2022-11-28T19:27:00.088Z,8.65
2022-11-28T19:29:38.249Z,8.66
2022-11-28T19:32:10.762Z,8.65
2022-11-28T19:34:43.273Z,8.66
2022-11-28T19:37:19.416Z,8.65
2022-11-28T19:40:02.180Z,8.67
2022-11-28T19:42:41.534Z,8.68
2022-11-28T19:45:19.558Z,8.68
2022-11-28T19:47:52.590Z,8.68
2022-11-28T19:50:31.527Z,8.68
2022-11-28T19:53:04.244Z,8.67
2022-11-28T19:55:40.419Z,8.69
2022-11-28T19:58:24.091Z,8.68
2022-11-28T20:01:08.298Z,8.70
2022-11-28T20:03:45.469Z,8.71
2022-11-28T20:06:18.344Z,8.71
2022-11-28T20:08:51.168Z,8.71
2022-11-28T20:11:31.750Z,8.72
2022-11-28T20:14:09.185Z,8.71
2022-11-28T20:16:48.221Z,8.72
2022-11-28T20:19:23.919Z,8.73
2022-11-28T20:21:59.671Z,8.74
2022-11-28T20:24:37.182Z,8.72
2022-11-28T20:27:08.927Z,8.73
2022-11-28T20:29:45.927Z,8.72
2022-11-28T20:32:19.204Z,8.70
2022-11-28T20:34:51.203Z,8.72
2022-11-28T20:37:25.886Z,8.71
2022-11-28T20:39:58.107Z,8.71
2022-11-28T20:42:27.359Z,8.72
2022-11-28T20:44:59.512Z,8.72
2022-11-28T20:47:35.228Z,8.72
2022-11-28T20:50:06.255Z,8.72
2022-11-28T20:52:40.548Z,8.73
2022-11-28T20:55:14.634Z,8.72
2022-11-28T20:57:52.554Z,8.73
2022-11-28T21:00:26.710Z,8.72
2022-11-28T21:03:00.879Z,8.72
2022-11-28T21:05:31.373Z,8.72
2022-11-28T21:08:04.232Z,8.72
2022-11-28T21:10:37.826Z,8.73
2022-11-28T21:13:14.977Z,8.73
2022-11-28T21:15:51.091Z,8.75
2022-11-28T21:18:23.232Z,8.75
2022-11-28T21:21:00.967Z,8.76
2022-11-28T21:23:39.502Z,8.77
2022-11-28T21:26:15.593Z,8.77
2022-11-28T21:28:49.420Z,8.77
2022-11-28T21:31:26.265Z,8.77
2022-11-28T21:34:06.901Z,8.78
2022-11-28T21:36:39.923Z,8.78
2022-11-28T21:39:19.330Z,8.79
2022-11-28T21:41:57.383Z,8.80
2022-11-28T21:44:34.212Z,8.80
2022-11-28T21:47:09.406Z,8.81
2022-11-28T21:49:45.475Z,8.83
2022-11-28T21:52:20.679Z,8.83
2022-11-28T21:54:53.947Z,8.84
2022-11-28T21:57:29.059Z,8.84
2022-11-28T22:00:05.315Z,8.84
2022-11-28T22:02:51.396Z,8.84
2022-11-28T22:05:28.397Z,8.83
2022-11-28T22:08:01.585Z,8.85
2022-11-28T22:10:41.048Z,8.86
2022-11-28T22:13:17.973Z,8.86
2022-11-28T22:15:53.332Z,8.87
2022-11-28T22:18:32.723Z,8.87
2022-11-28T22:21:49.937Z,8.87
2022-11-28T22:24:10.115Z,8.88
2022-11-28T22:26:45.792Z,8.89
2022-11-28T22:29:25.044Z,8.89
2022-11-28T22:32:00.045Z,8.88
2022-11-28T22:34:42.148Z,8.89
2022-11-28T22:37:18.282Z,8.89
2022-11-28T22:39:54.915Z,8.89
2022-11-28T22:42:29.998Z,8.89
2022-11-28T22:45:06.789Z,8.90
2022-11-28T22:47:38.956Z,8.90
2022-11-28T22:50:14.765Z,8.89
2022-11-28T22:52:52.841Z,8.87
2022-11-28T22:55:26.635Z,8.90
2022-11-28T22:58:02.690Z,8.88
2022-11-28T23:00:45.661Z,8.89
2022-11-28T23:03:28.712Z,8.89
2022-11-28T23:06:11.158Z,8.89
2022-11-28T23:08:49.551Z,8.90
2022-11-28T23:11:26.645Z,8.88
2022-11-28T23:14:04.844Z,8.88
2022-11-28T23:16:41.862Z,8.89
2022-11-28T23:19:18.262Z,8.89
2022-11-28T23:21:53.107Z,8.87
2022-11-28T23:24:34.105Z,8.87
2022-11-28T23:27:06.445Z,8.88
2022-11-28T23:29:46.797Z,8.85
2022-11-28T23:32:23.197Z,8.85
2022-11-28T23:34:56.764Z,8.85
2022-11-28T23:37:27.695Z,8.85
2022-11-28T23:40:03.335Z,8.84
2022-11-28T23:42:35.642Z,8.84
2022-11-28T23:45:12.811Z,8.85
2022-11-28T23:47:43.442Z,8.87
2022-11-28T23:50:23.413Z,8.87
2022-11-28T23:52:57.775Z,8.88
2022-11-28T23:55:27.727Z,8.88
2022-11-28T23:57:57.279Z,8.89
